Time;durP1;ratioP1;P1;durP2;ratioP2;P2;SDS_P1;SDS_P2;PMS_P1;PMS_P2;Temp;Humidity;BMP_temperature;BMP_pressure;BME280_temperature;BME280_humidity;BME280_pressure;Samples;Min_cycle;Max_cycle;Signal;HPM_P1;HPM_P2
2022/03/11 00:00:00;;;;;;;;;;;;;;;7.41;40.16;101459.34;5012295;28;19918;-80
2022/03/11 00:02:26;;;;;;;;;;;;;;;7.49;40.58;101460.25;5013663;28;20026;-80
2022/03/11 00:04:51;;;;;;;;;;;;;;;7.51;40.44;101461.09;5011860;28;20394;-79
2022/03/11 00:07:16;;;;;;;;;;;;;;;7.50;40.31;101456.78;5013631;28;20412;-76
2022/03/11 00:09:42;;;;;;;;;;;;;;;7.46;40.04;101452.47;5019216;28;19921;-76
2022/03/11 00:12:08;;;;;;;;;;;;;;;7.52;39.36;101452.47;5034754;28;19992;-80
2022/03/11 00:14:34;;;;;;;;;;;;;;;7.44;39.98;101442.97;5012860;28;20293;-80
2022/03/11 00:16:59;;;;;;;;;;;;;;;7.39;41.00;101448.13;5013532;28;19921;-76
2022/03/11 00:19:24;;;;;;;;;;;;;;;7.37;41.00;101444.69;5018755;28;19947;-76
2022/03/11 00:21:50;;;;;;;;;;;;;;;7.48;39.90;101443.00;5019205;28;19917;-76
2022/03/11 00:24:15;;;;;;;;;;;;;;;7.53;40.25;101443.00;5031159;28;19921;-76
2022/03/11 00:26:40;;;;;;;;;;;;;;;7.58;39.11;101433.53;5007175;28;19922;-76
2022/03/11 00:29:06;;;;;;;;;;;;;;;7.55;39.75;101436.94;5024096;28;19921;-76
2022/03/11 00:31:31;;;;;;;;;;;;;;;7.58;38.80;101433.53;5014113;28;20310;-76
2022/03/11 00:33:56;;;;;;;;;;;;;;;7.32;39.41;101433.47;5015337;28;19925;-76
2022/03/11 00:36:23;;;;;;;;;;;;;;;7.53;38.02;101430.06;5018325;28;19946;-76
2022/03/11 00:38:48;;;;;;;;;;;;;;;7.52;39.65;101429.19;5025778;28;19941;-80
2022/03/11 00:41:13;;;;;;;;;;;;;;;7.37;40.64;101436.06;5011940;28;19957;-81
2022/03/11 00:43:39;;;;;;;;;;;;;;;7.30;40.57;101435.19;5012399;28;19921;-81
2022/03/11 00:46:04;;;;;;;;;;;;;;;7.28;40.73;101426.56;5009585;28;20366;-80
2022/03/11 00:48:29;;;;;;;;;;;;;;;7.31;39.37;101430.88;5024203;28;20048;-80
2022/03/11 00:50:57;;;;;;;;;;;;;;;7.13;39.97;101432.56;5013187;28;19964;-80
2022/03/11 00:53:23;;;;;;;;;;;;;;;7.11;40.32;101433.38;5011815;28;19917;-80
2022/03/11 00:55:48;;;;;;;;;;;;;;;7.11;40.95;101433.38;5013288;28;19918;-80
2022/03/11 00:58:13;;;;;;;;;;;;;;;7.01;42.11;101440.25;5013470;28;20394;-80
2022/03/11 01:00:39;;;;;;;;;;;;;;;7.02;40.36;101434.22;5026985;28;19952;-80
2022/03/11 01:03:05;;;;;;;;;;;;;;;7.04;41.17;101432.53;5025628;28;20385;-81
2022/03/11 01:05:30;;;;;;;;;;;;;;;7.09;39.88;101429.94;5010720;28;19921;-81
2022/03/11 01:07:57;;;;;;;;;;;;;;;6.95;40.86;101426.44;5007296;28;19928;-80
2022/03/11 01:10:22;;;;;;;;;;;;;;;6.86;41.69;101429.00;5017909;28;20467;-80
2022/03/11 01:12:47;;;;;;;;;;;;;;;6.95;41.13;101427.31;5006713;28;19933;-81
2022/03/11 01:15:13;;;;;;;;;;;;;;;7.08;41.02;101423.91;5013347;28;19949;-81
2022/03/11 01:17:38;;;;;;;;;;;;;;;7.14;39.89;101417.91;5006118;28;20405;-81
2022/03/11 01:20:05;;;;;;;;;;;;;;;7.23;40.32;101417.94;5015895;28;19966;-80
2022/03/11 01:22:31;;;;;;;;;;;;;;;7.26;39.96;101423.09;5003354;28;19953;-80
2022/03/11 01:24:56;;;;;;;;;;;;;;;7.15;39.70;101422.22;5026607;28;20294;-81
2022/03/11 01:27:22;;;;;;;;;;;;;;;7.04;40.37;101421.31;5014851;28;19932;-81
2022/03/11 01:29:47;;;;;;;;;;;;;;;7.20;40.00;101415.31;5006456;28;20326;-80
2022/03/11 01:32:12;;;;;;;;;;;;;;;6.97;42.18;101424.72;5026261;28;20008;-80
2022/03/11 01:34:38;;;;;;;;;;;;;;;7.04;40.86;101413.56;5008378;28;19964;-80
2022/03/11 01:37:04;;;;;;;;;;;;;;;7.23;40.24;101411.91;5010375;28;20611;-80
2022/03/11 01:39:29;;;;;;;;;;;;;;;7.09;40.14;101407.56;5007623;28;19921;-79
2022/03/11 01:41:54;;;;;;;;;;;;;;;7.17;40.11;101417.06;5025250;28;19921;-80
2022/03/11 01:44:20;;;;;;;;;;;;;;;7.15;40.19;101409.28;5010123;28;20290;-80
2022/03/11 01:46:45;;;;;;;;;;;;;;;7.02;40.78;101402.34;5014388;28;20078;-80
2022/03/11 01:49:11;;;;;;;;;;;;;;;6.98;42.32;101401.50;5011703;28;20011;-80
2022/03/11 01:51:41;;;;;;;;;;;;;;;7.15;40.79;101396.38;5014365;28;19964;-80
2022/03/11 01:54:06;;;;;;;;;;;;;;;7.01;41.60;101398.06;5008534;28;19917;-80
2022/03/11 01:56:32;;;;;;;;;;;;;;;7.08;40.96;101394.63;5011601;28;20364;-80
2022/03/11 01:58:58;;;;;;;;;;;;;;;7.17;40.52;101397.22;5017679;28;20461;-80
2022/03/11 02:01:24;;;;;;;;;;;;;;;6.84;42.30;101390.22;5013462;28;20044;-81
2022/03/11 02:03:49;;;;;;;;;;;;;;;7.11;40.83;101380.00;5018016;28;19921;-80
2022/03/11 02:06:15;;;;;;;;;;;;;;;7.09;41.46;101383.44;5026120;28;19921;-80
2022/03/11 02:08:41;;;;;;;;;;;;;;;7.31;40.88;101384.38;5012084;28;19921;-80
2022/03/11 02:11:06;;;;;;;;;;;;;;;7.01;41.06;101378.25;5008236;28;19917;-81
2022/03/11 02:13:45;;;;;;;;;;;;;;;7.12;40.36;101376.56;5025373;28;20197;-79
2022/03/11 02:16:11;;;;;;;;;;;;;;;7.03;41.72;101373.09;5011356;28;19922;-76
2022/03/11 02:18:37;;;;;;;;;;;;;;;7.20;40.96;101376.56;5024669;28;19922;-76
2022/03/11 02:21:02;;;;;;;;;;;;;;;7.26;40.59;101370.56;5012499;28;19925;-77
2022/03/11 02:23:29;;;;;;;;;;;;;;;7.47;40.21;101363.72;5008059;28;19922;-76
2022/03/11 02:25:54;;;;;;;;;;;;;;;7.25;40.51;101364.53;5007769;28;20012;-76
2022/03/11 02:28:19;;;;;;;;;;;;;;;7.31;40.52;101368.88;5012233;28;20021;-76
2022/03/11 02:30:44;;;;;;;;;;;;;;;7.46;40.12;101366.31;5005821;28;19922;-76
2022/03/11 02:33:10;;;;;;;;;;;;;;;7.40;40.50;101366.28;5015298;28;19918;-76
2022/03/11 02:35:35;;;;;;;;;;;;;;;7.18;40.41;101361.94;5008195;28;19949;-76
2022/03/11 02:38:00;;;;;;;;;;;;;;;7.28;40.61;101356.81;5021659;28;20016;-79
2022/03/11 02:40:25;;;;;;;;;;;;;;;7.26;41.07;101367.97;5013347;28;19983;-80
2022/03/11 02:42:51;;;;;;;;;;;;;;;7.37;40.12;101364.56;5009753;28;19949;-79
2022/03/11 02:45:16;;;;;;;;;;;;;;;7.18;41.42;101356.75;5010030;28;21213;-80
2022/03/11 02:47:42;;;;;;;;;;;;;;;7.19;41.44;101355.91;5006176;28;19975;-80
2022/03/11 02:50:07;;;;;;;;;;;;;;;7.25;40.75;101359.38;5011536;28;19925;-80
2022/03/11 02:52:33;;;;;;;;;;;;;;;7.12;41.51;101353.31;5008457;28;19917;-80
2022/03/11 02:54:58;;;;;;;;;;;;;;;7.03;41.02;101352.41;5011112;28;19921;-76
2022/03/11 02:57:23;;;;;;;;;;;;;;;7.12;40.99;101355.03;5011803;28;19987;-81
2022/03/11 02:59:49;;;;;;;;;;;;;;;7.13;41.59;101349.03;5010136;28;20389;-81
2022/03/11 03:02:14;;;;;;;;;;;;;;;7.07;42.49;101352.44;5006114;28;19984;-76
2022/03/11 03:04:39;;;;;;;;;;;;;;;7.13;41.31;101356.75;5018216;28;19917;-80
2022/03/11 03:07:05;;;;;;;;;;;;;;;7.17;40.80;101357.63;5018750;28;19953;-80
2022/03/11 03:09:30;;;;;;;;;;;;;;;7.12;41.41;101365.38;5013753;28;20012;-80
2022/03/11 03:11:56;;;;;;;;;;;;;;;7.05;41.32;101359.31;5013825;28;19928;-80
2022/03/11 03:14:21;;;;;;;;;;;;;;;7.17;41.55;101363.66;5017485;28;19931;-80
2022/03/11 03:16:46;;;;;;;;;;;;;;;7.03;41.53;101366.19;5011770;28;19922;-80
2022/03/11 03:19:12;;;;;;;;;;;;;;;7.05;42.29;101363.63;5014677;28;20024;-80
2022/03/11 03:21:37;;;;;;;;;;;;;;;7.16;41.08;101355.91;5013799;28;19922;-81
2022/03/11 03:24:02;;;;;;;;;;;;;;;7.13;41.04;101356.75;5016864;28;19926;-80
2022/03/11 03:26:28;;;;;;;;;;;;;;;7.13;41.21;101362.81;5024668;28;19984;-80
2022/03/11 03:28:53;;;;;;;;;;;;;;;7.13;40.95;101360.22;5008739;28;19977;-80
2022/03/11 03:31:21;;;;;;;;;;;;;;;6.96;41.95;101363.63;5018360;28;19972;-81
2022/03/11 03:33:47;;;;;;;;;;;;;;;6.90;42.26;101369.59;5018781;28;19925;-80
2022/03/11 03:36:12;;;;;;;;;;;;;;;7.05;42.60;101364.47;5010481;28;20495;-80
2022/03/11 03:38:38;;;;;;;;;;;;;;;6.96;42.41;101368.78;5018992;28;19940;-80
2022/03/11 03:41:03;;;;;;;;;;;;;;;6.83;41.88;101365.28;5016410;28;19932;-81
2022/03/11 03:43:29;;;;;;;;;;;;;;;7.06;42.41;101360.19;5021447;28;20293;-81
2022/03/11 03:45:54;;;;;;;;;;;;;;;6.98;41.78;101362.75;5013736;28;19929;-80
2022/03/11 03:48:19;;;;;;;;;;;;;;;6.96;42.31;101359.28;5009954;28;19971;-80
2022/03/11 03:50:45;;;;;;;;;;;;;;;6.94;42.10;101355.84;5016425;28;19930;-80
2022/03/11 03:53:10;;;;;;;;;;;;;;;6.85;41.77;101355.81;5029368;28;20353;-80
2022/03/11 03:55:35;;;;;;;;;;;;;;;6.95;41.90;101357.59;5012233;28;19917;-80
2022/03/11 03:58:01;;;;;;;;;;;;;;;6.84;41.63;101356.66;5029165;28;19925;-81
2022/03/11 04:00:27;;;;;;;;;;;;;;;7.06;41.42;101358.47;5013364;28;19929;-80
2022/03/11 04:02:52;;;;;;;;;;;;;;;6.91;41.94;101363.59;5015420;28;20362;-80
2022/03/11 04:05:18;;;;;;;;;;;;;;;6.75;43.07;101363.53;5024191;28;19921;-79
2022/03/11 04:07:44;;;;;;;;;;;;;;;6.86;42.59;101362.72;5016173;28;20024;-79
2022/03/11 04:10:10;;;;;;;;;;;;;;;6.63;42.88;101360.91;5015402;28;19929;-80
2022/03/11 04:12:35;;;;;;;;;;;;;;;6.66;43.52;101356.63;5011789;28;19921;-80
2022/03/11 04:15:01;;;;;;;;;;;;;;;6.61;43.58;101360.88;5027819;28;20425;-80
2022/03/11 04:17:26;;;;;;;;;;;;;;;6.64;43.10;101360.88;5004244;28;19949;-80
2022/03/11 04:19:51;;;;;;;;;;;;;;;6.51;42.90;101359.13;5010420;28;20282;-76
2022/03/11 04:22:17;;;;;;;;;;;;;;;6.49;43.39;101366.84;5010524;28;19917;-80
2022/03/11 04:24:43;;;;;;;;;;;;;;;6.44;44.24;101365.06;5007511;28;19933;-80
2022/03/11 04:27:09;;;;;;;;;;;;;;;6.23;44.87;101372.66;5025848;28;19929;-80
2022/03/11 04:29:34;;;;;;;;;;;;;;;6.31;43.25;101365.84;5008126;28;19937;-80
2022/03/11 04:31:59;;;;;;;;;;;;;;;6.31;44.56;101371.84;5014584;28;20295;-76
2022/03/11 04:34:25;;;;;;;;;;;;;;;6.36;43.62;101362.44;5011571;28;20293;-76
2022/03/11 04:36:50;;;;;;;;;;;;;;;6.32;44.10;101357.25;5018855;28;20040;-76
2022/03/11 04:39:16;;;;;;;;;;;;;;;6.52;43.14;101361.69;5018874;28;19984;-80
2022/03/11 04:41:44;;;;;;;;;;;;;;;6.56;42.97;101362.56;5013726;28;20279;-76
2022/03/11 04:44:09;;;;;;;;;;;;;;;6.57;43.30;101360.00;5013719;28;19936;-80
2022/03/11 04:46:34;;;;;;;;;;;;;;;6.53;43.96;101360.84;5010925;28;19909;-80
2022/03/11 04:49:00;;;;;;;;;;;;;;;6.51;43.46;101365.13;5010666;28;20016;-80
2022/03/11 04:51:26;;;;;;;;;;;;;;;6.73;42.88;101362.63;5016687;28;19980;-80
2022/03/11 04:53:51;;;;;;;;;;;;;;;6.72;42.68;101363.53;5008725;28;19922;-80
2022/03/11 04:56:16;;;;;;;;;;;;;;;6.72;42.11;101366.97;5008122;28;19927;-80
2022/03/11 04:58:42;;;;;;;;;;;;;;;6.81;41.78;101358.38;5007818;28;19926;-80
2022/03/11 05:01:07;;;;;;;;;;;;;;;6.84;42.75;101363.56;5007184;28;20016;-80
2022/03/11 05:03:33;;;;;;;;;;;;;;;6.81;42.21;101358.38;5009949;28;19926;-76
2022/03/11 05:05:58;;;;;;;;;;;;;;;6.68;43.25;101361.78;5020792;28;19921;-76
2022/03/11 05:08:23;;;;;;;;;;;;;;;6.82;42.89;101373.00;5029585;28;19929;-76
2022/03/11 05:10:49;;;;;;;;;;;;;;;6.94;41.78;101360.13;5007263;28;19929;-80
2022/03/11 05:13:14;;;;;;;;;;;;;;;7.11;41.37;101363.63;5012779;28;19925;-81
2022/03/11 05:15:40;;;;;;;;;;;;;;;6.82;41.36;101355.81;5026818;28;19924;-80
2022/03/11 05:18:05;;;;;;;;;;;;;;;6.72;42.60;101360.94;5002567;28;19928;-80
2022/03/11 05:20:31;;;;;;;;;;;;;;;6.94;41.99;101358.44;5006008;28;20611;-80
2022/03/11 05:22:56;;;;;;;;;;;;;;;6.79;42.06;101357.50;5008733;28;19964;-80
2022/03/11 05:25:22;;;;;;;;;;;;;;;6.74;42.91;101361.78;5002942;28;20012;-80
2022/03/11 05:27:47;;;;;;;;;;;;;;;6.77;41.93;101360.09;5009743;28;19925;-80
2022/03/11 05:30:13;;;;;;;;;;;;;;;6.73;42.00;101355.75;5008390;28;20590;-76
2022/03/11 05:32:43;;;;;;;;;;;;;;;6.79;42.04;101350.63;5023510;28;20083;-80
2022/03/11 05:35:08;;;;;;;;;;;;;;;6.91;41.59;101344.63;5016108;28;19918;-80
2022/03/11 05:37:34;;;;;;;;;;;;;;;6.88;42.25;101336.88;5010546;28;19921;-80
2022/03/11 05:39:59;;;;;;;;;;;;;;;6.99;41.84;101341.22;5013087;28;20313;-80
2022/03/11 05:42:25;;;;;;;;;;;;;;;6.95;40.94;101336.06;5009125;28;19924;-80
2022/03/11 05:44:50;;;;;;;;;;;;;;;6.83;41.72;101344.63;5004581;28;19985;-80
2022/03/11 05:47:15;;;;;;;;;;;;;;;6.99;42.58;101343.78;4998170;28;19928;-80
2022/03/11 05:49:40;;;;;;;;;;;;;;;6.95;42.09;101343.78;5004735;28;19928;-79
2022/03/11 05:52:06;;;;;;;;;;;;;;;6.98;41.12;101333.47;5015091;28;19929;-80
2022/03/11 05:54:31;;;;;;;;;;;;;;;6.82;42.46;101337.72;5009623;28;19921;-80
2022/03/11 05:56:56;;;;;;;;;;;;;;;6.88;42.20;101337.75;5008860;28;19952;-79
2022/03/11 05:59:22;;;;;;;;;;;;;;;6.89;41.34;101341.19;5010281;28;20436;-80
2022/03/11 06:01:47;;;;;;;;;;;;;;;6.99;42.16;101341.22;5014130;28;19921;-80
2022/03/11 06:04:13;;;;;;;;;;;;;;;6.79;42.55;101342.88;5014238;28;20294;-80
2022/03/11 06:06:38;;;;;;;;;;;;;;;6.88;42.09;101335.16;5010209;28;19929;-76
2022/03/11 06:09:03;;;;;;;;;;;;;;;7.18;41.47;101338.69;5006397;28;19943;-80
2022/03/11 06:11:29;;;;;;;;;;;;;;;7.03;41.98;101330.03;5006405;28;19932;-80
2022/03/11 06:13:54;;;;;;;;;;;;;;;6.91;41.89;101334.31;5008830;28;19983;-80
2022/03/11 06:16:19;;;;;;;;;;;;;;;7.02;42.29;101338.63;5007686;28;19956;-81
2022/03/11 06:18:45;;;;;;;;;;;;;;;7.41;41.73;101334.41;5007397;28;19926;-81
2022/03/11 06:21:11;;;;;;;;;;;;;;;6.79;42.69;101327.38;5011639;28;19929;-80
2022/03/11 06:23:37;;;;;;;;;;;;;;;6.72;42.45;101322.22;5013173;28;20004;-80
2022/03/11 06:26:03;;;;;;;;;;;;;;;6.85;42.34;101330.00;5012200;28;20016;-76
2022/03/11 06:28:28;;;;;;;;;;;;;;;6.81;42.89;101323.06;5023306;28;19921;-77
2022/03/11 06:30:54;;;;;;;;;;;;;;;6.85;41.99;101330.00;5024101;28;20011;-76
2022/03/11 06:33:20;;;;;;;;;;;;;;;6.74;42.73;101338.56;5002908;28;19918;-77
2022/03/11 06:35:46;;;;;;;;;;;;;;;6.59;42.73;101331.63;5005756;28;20406;-76
2022/03/11 06:38:11;;;;;;;;;;;;;;;6.67;42.36;101340.25;5019566;28;19952;-76
2022/03/11 06:40:36;;;;;;;;;;;;;;;6.64;42.64;101345.41;5008411;28;20294;-77
2022/03/11 06:43:02;;;;;;;;;;;;;;;6.93;41.19;101341.19;5012572;28;19978;-77
2022/03/11 06:45:28;;;;;;;;;;;;;;;6.69;42.80;101335.97;5014755;28;19926;-77
2022/03/11 06:47:53;;;;;;;;;;;;;;;6.80;42.25;101347.19;5007317;28;19928;-76
2022/03/11 06:50:18;;;;;;;;;;;;;;;6.84;42.33;101346.31;5012329;28;20356;-76
2022/03/11 06:52:44;;;;;;;;;;;;;;;6.84;41.99;101348.91;5017590;28;19921;-76
2022/03/11 06:55:09;;;;;;;;;;;;;;;6.89;41.44;101344.66;5008426;28;19947;-76
2022/03/11 06:57:35;;;;;;;;;;;;;;;6.72;41.28;101356.63;5012023;28;20386;-76
2022/03/11 07:00:00;;;;;;;;;;;;;;;6.61;43.36;101360.88;5009995;28;20016;-76
2022/03/11 07:02:26;;;;;;;;;;;;;;;6.62;42.43;101357.44;5007426;28;20295;-76
2022/03/11 07:04:51;;;;;;;;;;;;;;;6.78;41.87;101353.22;5018688;28;19964;-77
2022/03/11 07:07:17;;;;;;;;;;;;;;;6.77;41.55;101361.81;5013615;28;19924;-76
2022/03/11 07:09:42;;;;;;;;;;;;;;;6.91;46.46;101358.41;5010649;28;19982;-76
2022/03/11 07:12:08;;;;;;;;;;;;;;;6.90;41.53;101354.09;5012243;28;19936;-77
2022/03/11 07:14:35;;;;;;;;;;;;;;;6.92;41.24;101361.88;5013575;28;19925;-76
2022/03/11 07:17:01;;;;;;;;;;;;;;;6.81;42.97;101361.81;5008769;28;19925;-81
2022/03/11 07:19:29;;;;;;;;;;;;;;;7.05;42.19;101350.69;5011527;28;19960;-81
2022/03/11 07:21:58;;;;;;;;;;;;;;;6.96;42.42;101361.88;5013064;28;19928;-80
2022/03/11 07:24:23;;;;;;;;;;;;;;;6.95;42.03;101356.72;5017549;28;19924;-80
2022/03/11 07:26:49;;;;;;;;;;;;;;;6.94;41.06;101360.13;5014218;28;19925;-81
2022/03/11 07:29:15;;;;;;;;;;;;;;;6.81;43.13;101361.81;5010753;28;19922;-80
2022/03/11 07:31:41;;;;;;;;;;;;;;;6.63;42.65;101361.75;5018329;28;19918;-80
2022/03/11 07:34:06;;;;;;;;;;;;;;;6.97;41.37;101357.56;5013575;28;19929;-80
2022/03/11 07:36:34;;;;;;;;;;;;;;;6.96;41.94;101356.69;5013309;28;19967;-80
2022/03/11 07:39:00;;;;;;;;;;;;;;;7.04;41.47;101362.78;5014835;28;19978;-80
2022/03/11 07:41:26;;;;;;;;;;;;;;;6.97;43.62;101367.91;5015257;28;19928;-80
2022/03/11 07:43:52;;;;;;;;;;;;;;;6.97;40.86;101361.03;5026928;28;19926;-80
2022/03/11 07:46:17;;;;;;;;;;;;;;;7.27;40.69;101364.53;5012599;28;19940;-81
2022/03/11 07:48:43;;;;;;;;;;;;;;;7.34;40.70;101353.38;5011326;28;19925;-80
2022/03/11 07:51:08;;;;;;;;;;;;;;;7.24;39.96;101344.72;5013935;28;19921;-80
2022/03/11 07:53:34;;;;;;;;;;;;;;;7.20;40.24;101345.56;5013171;28;19988;-81
2022/03/11 07:56:00;;;;;;;;;;;;;;;7.63;41.79;101338.72;5019291;28;19919;-80
2022/03/11 07:58:25;;;;;;;;;;;;;;;7.99;45.25;101348.19;5012423;28;20016;-80
2022/03/11 08:00:54;;;;;;;;;;;;;;;7.65;39.07;101350.78;5028914;28;20317;-80
2022/03/11 08:03:20;;;;;;;;;;;;;;;7.90;39.97;101351.66;5028530;28;19921;-80
2022/03/11 08:05:45;;;;;;;;;;;;;;;8.20;44.67;101354.22;5014379;28;19921;-81
2022/03/11 08:08:11;;;;;;;;;;;;;;;8.17;40.03;101349.03;5013765;28;19925;-81
2022/03/11 08:10:37;;;;;;;;;;;;;;;8.15;38.51;101339.53;5010789;28;19935;-80
2022/03/11 08:13:03;;;;;;;;;;;;;;;8.22;42.94;101351.59;5015748;28;19926;-80
2022/03/11 08:15:32;;;;;;;;;;;;;;;8.16;42.15;101347.31;5010774;28;20416;-81
2022/03/11 08:17:58;;;;;;;;;;;;;;;8.03;38.74;101340.41;5006797;28;19922;-81
2022/03/11 08:20:23;;;;;;;;;;;;;;;7.97;40.35;101337.84;5008988;28;19940;-81
2022/03/11 08:22:51;;;;;;;;;;;;;;;7.89;38.56;101337.00;5011478;28;19921;-80
2022/03/11 08:25:17;;;;;;;;;;;;;;;8.29;45.35;101329.16;5021061;28;19964;-80
2022/03/11 08:27:42;;;;;;;;;;;;;;;8.16;40.23;101318.84;5025358;28;19964;-80
2022/03/11 08:30:09;;;;;;;;;;;;;;;8.20;43.69;101311.94;5010328;28;19926;-80
2022/03/11 08:32:35;;;;;;;;;;;;;;;8.25;42.33;101311.06;5014181;28;19925;-81
2022/03/11 08:35:00;;;;;;;;;;;;;;;8.13;38.77;101316.25;5010287;28;20390;-81
2022/03/11 08:37:25;;;;;;;;;;;;;;;8.05;37.25;101311.97;5011968;28;20362;-80
2022/03/11 08:39:51;;;;;;;;;;;;;;;8.32;44.36;101316.22;5014144;28;19969;-76
2022/03/11 08:42:17;;;;;;;;;;;;;;;7.91;37.31;101314.56;5005705;28;19925;-76
2022/03/11 08:44:43;;;;;;;;;;;;;;;8.04;38.59;101303.34;5005730;28;19964;-76
2022/03/11 08:47:08;;;;;;;;;;;;;;;8.42;38.71;101307.56;5013725;28;19929;-77
2022/03/11 08:49:34;;;;;;;;;;;;;;;8.23;42.18;101292.09;5008310;28;19924;-77
2022/03/11 08:51:59;;;;;;;;;;;;;;;8.09;37.45;101286.06;5009766;28;19922;-77
2022/03/11 08:54:27;;;;;;;;;;;;;;;8.12;37.54;101288.66;5010914;28;19929;-77
2022/03/11 08:56:55;;;;;;;;;;;;;;;8.51;45.25;101292.00;5007380;28;19932;-77
2022/03/11 08:59:21;;;;;;;;;;;;;;;8.37;37.39;101292.06;5009082;28;19926;-77
2022/03/11 09:01:46;;;;;;;;;;;;;;;8.96;44.46;101290.91;5003459;28;19940;-77
2022/03/11 09:04:12;;;;;;;;;;;;;;;8.88;40.90;101285.78;5016087;28;19922;-76
2022/03/11 09:06:37;;;;;;;;;;;;;;;9.25;43.39;101283.78;5002488;28;19922;-76
2022/03/11 09:09:03;;;;;;;;;;;;;;;8.82;38.18;101290.13;5025594;28;19928;-77
2022/03/11 09:11:28;;;;;;;;;;;;;;;8.74;37.48;101285.84;5007701;28;19929;-77
2022/03/11 09:13:53;;;;;;;;;;;;;;;8.32;37.31;101286.03;5010158;28;20275;-77
2022/03/11 09:16:19;;;;;;;;;;;;;;;8.57;37.44;101281.63;5006698;28;19945;-76
2022/03/11 09:18:44;;;;;;;;;;;;;;;8.72;41.69;101287.59;5009687;28;20461;-77
2022/03/11 09:21:10;;;;;;;;;;;;;;;8.44;42.35;101288.59;5015211;28;19975;-81
2022/03/11 09:23:35;;;;;;;;;;;;;;;8.71;37.77;101277.25;5014474;28;20561;-82
2022/03/11 09:26:01;;;;;;;;;;;;;;;8.49;38.34;101285.97;5014574;28;19976;-77
2022/03/11 09:28:26;;;;;;;;;;;;;;;8.48;37.54;101282.53;5010337;28;19925;-79
2022/03/11 09:30:51;;;;;;;;;;;;;;;8.38;37.39;101277.41;5027535;28;20441;-80
2022/03/11 09:33:18;;;;;;;;;;;;;;;8.55;38.13;101276.47;5013246;28;19924;-79
2022/03/11 09:35:43;;;;;;;;;;;;;;;8.44;37.40;101282.56;5010656;28;20015;-80
2022/03/11 09:38:08;;;;;;;;;;;;;;;8.70;38.30;101280.69;5003630;28;20531;-82
2022/03/11 09:40:34;;;;;;;;;;;;;;;8.59;36.41;101280.72;5009371;28;19929;-81
2022/03/11 09:43:02;;;;;;;;;;;;;;;8.60;36.28;101287.66;5014322;28;20390;-82
2022/03/11 09:45:28;;;;;;;;;;;;;;;8.48;36.78;101290.28;5010483;28;19949;-82
2022/03/11 09:47:53;;;;;;;;;;;;;;;8.38;37.33;101283.44;5016216;28;19921;-80
2022/03/11 09:50:19;;;;;;;;;;;;;;;8.38;40.19;101291.22;5007212;28;19917;-80
2022/03/11 09:52:47;;;;;;;;;;;;;;;8.67;42.51;101285.91;5010253;28;20362;-82
2022/03/11 09:55:12;;;;;;;;;;;;;;;8.82;37.32;101272.88;5010332;28;20012;-82
2022/03/11 09:57:38;;;;;;;;;;;;;;;9.16;43.54;101284.72;5009087;28;20004;-81
2022/03/11 10:00:04;;;;;;;;;;;;;;;9.15;40.15;101269.19;5009912;28;20052;-77
2022/03/11 10:02:29;;;;;;;;;;;;;;;8.90;36.83;101268.50;5008940;28;19918;-77
2022/03/11 10:04:58;;;;;;;;;;;;;;;8.69;36.54;101266.03;5009732;28;19929;-77
2022/03/11 10:07:24;;;;;;;;;;;;;;;8.82;40.45;101267.69;5004459;28;19921;-77
2022/03/11 10:09:50;;;;;;;;;;;;;;;9.03;40.46;101280.50;5006286;28;20404;-82
2022/03/11 10:12:26;;;;;;;;;;;;;;;8.89;36.77;101274.53;5012207;28;20007;-81
2022/03/11 10:15:10;;;;;;;;;;;;;;;8.62;36.05;101272.94;5007353;28;19996;-81
2022/03/11 10:17:42;;;;;;;;;;;;;;;9.12;40.34;101272.69;5017013;28;20405;-81
2022/03/11 10:20:16;;;;;;;;;;;;;;;8.79;35.88;101260.78;5015613;28;19921;-80
2022/03/11 10:22:45;;;;;;;;;;;;;;;8.73;36.10;101254.78;5032386;28;20351;-82
2022/03/11 10:25:13;;;;;;;;;;;;;;;8.68;36.65;101252.19;5008461;28;19928;-81
2022/03/11 10:27:58;;;;;;;;;;;;;;;8.67;36.44;101257.41;5006704;28;19968;-77
2022/03/11 10:30:25;;;;;;;;;;;;;;;8.90;42.15;101258.13;5006175;28;20287;-77
2022/03/11 10:32:51;;;;;;;;;;;;;;;8.86;37.02;101255.59;5014897;28;19933;-81
2022/03/11 10:35:18;;;;;;;;;;;;;;;8.85;35.92;101246.94;5012149;28;20572;-81
2022/03/11 10:38:04;;;;;;;;;;;;;;;8.75;35.89;101235.78;5002718;28;20433;-82
2022/03/11 10:40:31;;;;;;;;;;;;;;;8.75;35.79;101237.50;5012316;28;19975;-81
2022/03/11 10:43:14;;;;;;;;;;;;;;;8.71;36.14;101231.47;5010127;28;20310;-81
2022/03/11 10:45:45;;;;;;;;;;;;;;;8.67;36.43;101228.91;5006233;28;19922;-81
2022/03/11 10:48:10;;;;;;;;;;;;;;;8.71;37.02;101225.44;5012635;28;19929;-82
2022/03/11 10:50:36;;;;;;;;;;;;;;;8.71;37.48;101228.88;5013917;28;19926;-80
2022/03/11 10:53:05;;;;;;;;;;;;;;;8.82;37.09;101233.13;5023434;28;19921;-80
2022/03/11 10:55:31;;;;;;;;;;;;;;;8.87;35.30;101228.78;5024576;28;19921;-76
2022/03/11 10:58:04;;;;;;;;;;;;;;;8.83;36.10;101214.97;4996287;28;19926;-76
2022/03/11 11:00:40;;;;;;;;;;;;;;;8.90;36.01;101214.09;5003636;28;20386;-77
2022/03/11 11:03:07;;;;;;;;;;;;;;;8.78;35.90;101219.34;5007092;28;20039;-80
2022/03/11 11:05:33;;;;;;;;;;;;;;;8.88;35.35;101215.84;5006354;28;20412;-80
2022/03/11 11:07:59;;;;;;;;;;;;;;;8.98;36.10;101208.88;5012140;28;19925;-81
2022/03/11 11:10:26;;;;;;;;;;;;;;;8.93;35.42;101198.50;5011754;28;19925;-81
2022/03/11 11:12:52;;;;;;;;;;;;;;;8.90;36.42;101208.03;5015155;28;20019;-77
2022/03/11 11:15:18;;;;;;;;;;;;;;;8.91;36.12;101202.84;5024701;28;20020;-77
2022/03/11 11:17:44;;;;;;;;;;;;;;;8.94;36.64;101200.25;5028805;28;20270;-77
2022/03/11 11:20:33;;;;;;;;;;;;;;;8.98;35.92;101198.50;5011037;28;19931;-81
2022/03/11 11:23:02;;;;;;;;;;;;;;;8.98;36.65;101186.38;5011055;28;19971;-81
2022/03/11 11:25:27;;;;;;;;;;;;;;;9.07;35.42;101188.91;5009911;28;19929;-81
2022/03/11 11:27:57;;;;;;;;;;;;;;;9.04;35.61;101188.91;5012013;28;20293;-81
2022/03/11 11:30:23;;;;;;;;;;;;;;;9.13;35.47;101168.13;5011153;28;20011;-81
2022/03/11 11:32:52;;;;;;;;;;;;;;;9.14;34.95;101162.06;5011963;28;20080;-81
2022/03/11 11:35:27;;;;;;;;;;;;;;;9.22;35.18;101165.44;5016459;28;19944;-80
2022/03/11 11:37:53;;;;;;;;;;;;;;;9.18;35.57;101155.13;5015891;28;19933;-80
2022/03/11 11:40:20;;;;;;;;;;;;;;;9.12;35.17;101157.78;5007150;28;19960;-81
2022/03/11 11:43:04;;;;;;;;;;;;;;;9.02;34.69;101163.91;5013699;28;19928;-81
2022/03/11 11:45:43;;;;;;;;;;;;;;;9.15;35.08;101147.38;5025291;28;19932;-81
2022/03/11 11:48:26;;;;;;;;;;;;;;;9.15;35.10;101148.25;5020752;28;19929;-81
2022/03/11 11:50:52;;;;;;;;;;;;;;;9.27;35.07;101136.91;5006546;28;19960;-81
2022/03/11 11:53:34;;;;;;;;;;;;;;;9.24;34.94;101136.94;5028564;28;19952;-81
2022/03/11 11:56:18;;;;;;;;;;;;;;;9.35;34.81;101135.09;5007675;28;19928;-81
2022/03/11 11:58:51;;;;;;;;;;;;;;;9.27;34.99;101124.81;5011611;28;19925;-80
2022/03/11 12:01:36;;;;;;;;;;;;;;;9.35;36.05;101125.56;5017001;28;20297;-81
2022/03/11 12:04:20;;;;;;;;;;;;;;;9.44;34.76;101118.56;5026234;28;20374;-77
2022/03/11 12:07:04;;;;;;;;;;;;;;;9.39;35.20;101113.44;5018113;28;19930;-80
2022/03/11 12:09:38;;;;;;;;;;;;;;;9.44;35.16;101123.75;4996315;28;19930;-81
2022/03/11 12:12:07;;;;;;;;;;;;;;;9.73;40.00;101113.91;5011736;28;19921;-80
2022/03/11 12:14:33;;;;;;;;;;;;;;;9.62;35.37;101103.66;5006790;28;19997;-81
2022/03/11 12:17:03;;;;;;;;;;;;;;;9.63;35.57;101107.13;5009364;28;20367;-81
2022/03/11 12:19:42;;;;;;;;;;;;;;;9.55;36.21;101099.41;5008384;28;19952;-81
2022/03/11 12:22:32;;;;;;;;;;;;;;;9.67;35.92;101095.81;5009047;28;20550;-81
2022/03/11 12:25:01;;;;;;;;;;;;;;;9.59;35.35;101089.88;5012392;28;19928;-81
2022/03/11 12:27:45;;;;;;;;;;;;;;;9.67;35.55;101091.50;5000508;28;19925;-81
2022/03/11 12:30:10;;;;;;;;;;;;;;;9.69;39.52;101089.72;5000765;28;20342;-81
2022/03/11 12:32:38;;;;;;;;;;;;;;;9.75;35.17;101081.03;5008821;28;19922;-81
2022/03/11 12:35:04;;;;;;;;;;;;;;;9.72;35.57;101081.91;5012592;28;19923;-77
2022/03/11 12:37:29;;;;;;;;;;;;;;;9.88;42.01;101087.78;5048603;28;19922;-77
2022/03/11 12:39:57;;;;;;;;;;;;;;;9.87;37.20;101071.34;5006431;28;20333;-77
2022/03/11 12:42:38;;;;;;;;;;;;;;;9.74;36.58;101064.59;5002630;28;19918;-77
2022/03/11 12:45:04;;;;;;;;;;;;;;;9.84;38.07;101062.72;5007266;28;20354;-77